Time,TemperatureF,DewpointF,PressureIn,WindDirection,WindDirectionDegrees,WindSpeedMPH,WindSpeedGustMPH,Humidity,HourlyPrecipIn,Conditions,Clouds,dailyrainin,SoftwareType,DateUTC
2013-10-08 00:04:00,76.0,72.0,29.86,West,267,0.0,0.0,86,0.00,,,0.01,,2013-10-08 04:04:00,
2013-10-08 00:14:00,76.0,72.0,29.86,West,267,0.0,0.0,86,0.00,,,0.01,,2013-10-08 04:14:00,
2013-10-08 00:23:00,75.0,71.0,29.86,West,267,0.0,0.0,86,0.00,,,0.01,,2013-10-08 04:23:00,
2013-10-08 00:53:00,74.0,69.0,29.85,West,267,0.0,0.0,85,0.00,,,0.01,,2013-10-08 04:53:00,
2013-10-08 01:03:00,74.0,69.0,29.85,West,267,0.0,0.0,85,0.00,,,0.01,,2013-10-08 05:03:00,
2013-10-08 01:22:00,74.0,69.0,29.83,West,267,0.0,0.0,85,0.00,,,0.01,,2013-10-08 05:22:00,
2013-10-08 01:33:00,74.0,69.0,29.83,West,267,0.0,0.0,85,0.00,,,0.01,,2013-10-08 05:33:00,
2013-10-08 01:53:00,73.0,68.0,29.84,West,267,0.0,0.0,85,0.00,,,0.01,,2013-10-08 05:53:00,
2013-10-08 02:22:00,73.0,68.0,29.83,West,267,0.0,0.0,85,0.00,,,0.01,,2013-10-08 06:22:00,
2013-10-08 02:52:00,72.0,67.0,29.84,West,267,0.0,0.0,85,0.00,,,0.01,,2013-10-08 06:52:00,
2013-10-08 03:21:00,72.0,67.0,29.84,West,267,0.0,0.0,85,0.00,,,0.01,,2013-10-08 07:21:00,
2013-10-08 03:32:00,72.0,67.0,29.84,West,267,0.0,0.0,85,0.00,,,0.01,,2013-10-08 07:32:00,
2013-10-08 03:52:00,72.0,67.0,29.84,West,267,0.0,0.0,85,0.00,,,0.01,,2013-10-08 07:52:00,
2013-10-08 04:12:00,71.0,66.0,29.84,West,267,0.0,0.0,84,0.00,,,0.01,,2013-10-08 08:12:00,
2013-10-08 04:22:00,71.0,66.0,29.84,West,267,0.0,0.0,84,0.00,,,0.01,,2013-10-08 08:22:00,
2013-10-08 04:32:00,71.0,66.0,29.84,West,267,0.0,0.0,84,0.00,,,0.01,,2013-10-08 08:32:00,
2013-10-08 04:52:00,71.0,66.0,29.83,West,267,0.0,0.0,85,0.00,,,0.01,,2013-10-08 08:52:00,
2013-10-08 05:02:00,71.0,66.0,29.83,West,267,0.0,0.0,85,0.00,,,0.01,,2013-10-08 09:02:00,
2013-10-08 05:12:00,71.0,66.0,29.83,West,267,0.0,0.0,85,0.00,,,0.01,,2013-10-08 09:12:00,
2013-10-08 05:53:00,70.0,65.0,29.84,West,267,0.0,0.0,85,0.00,,,0.01,,2013-10-08 09:53:00,
2013-10-08 06:12:00,70.0,65.0,29.84,West,267,0.0,0.0,85,0.00,,,0.01,,2013-10-08 10:12:00,
2013-10-08 06:23:00,70.0,65.0,29.84,West,267,0.0,0.0,85,0.00,,,0.01,,2013-10-08 10:23:00,
2013-10-08 06:33:00,70.0,65.0,29.84,West,267,0.0,0.0,85,0.00,,,0.01,,2013-10-08 10:33:00,
2013-10-08 06:53:00,70.0,65.0,29.85,West,267,0.0,0.0,85,0.00,,,0.01,,2013-10-08 10:53:00,
2013-10-08 07:22:00,69.0,64.0,29.85,West,267,0.0,0.0,85,0.00,,,0.01,,2013-10-08 11:22:00,
2013-10-08 07:52:00,69.0,64.0,29.86,West,267,0.0,0.0,85,0.00,,,0.01,,2013-10-08 11:52:00,
2013-10-08 08:02:00,69.0,64.0,29.86,West,267,0.0,0.0,85,0.00,,,0.01,,2013-10-08 12:02:00,
2013-10-08 08:22:00,69.0,64.0,29.87,West,267,0.0,0.0,85,0.00,,,0.01,,2013-10-08 12:22:00,
2013-10-08 08:32:00,69.0,64.0,29.87,West,267,0.0,0.0,85,0.00,,,0.01,,2013-10-08 12:32:00,
2013-10-08 08:52:00,72.0,68.0,29.88,West,267,0.0,0.0,86,0.00,,,0.01,,2013-10-08 12:52:00,
2013-10-08 09:12:00,72.0,68.0,29.88,West,267,0.0,0.0,86,0.00,,,0.01,,2013-10-08 13:12:00,
2013-10-08 09:22:00,78.0,73.0,29.89,West,266,0.0,0.0,86,0.00,,,0.01,,2013-10-08 13:22:00,
2013-10-08 09:42:00,79.0,74.0,29.89,West,266,0.0,0.0,85,0.00,,,0.01,,2013-10-08 13:42:00,
2013-10-08 09:52:00,81.0,76.0,29.89,West,267,0.0,0.0,84,0.00,,,0.01,,2013-10-08 13:52:00,
2013-10-08 10:22:00,82.0,75.0,29.91,West,271,0.0,0.0,80,0.00,,,0.01,,2013-10-08 14:22:00,
2013-10-08 10:52:00,83.0,75.0,29.91,WNW,298,1.0,5.0,78,0.00,,,0.01,,2013-10-08 14:52:00,
2013-10-08 11:22:00,85.0,75.0,29.91,SW,228,2.0,7.0,73,0.00,,,0.01,,2013-10-08 15:22:00,
2013-10-08 11:33:00,85.0,75.0,29.91,SW,228,2.0,7.0,73,0.00,,,0.01,,2013-10-08 15:33:00,
2013-10-08 11:53:00,87.0,75.0,29.91,WNW,296,1.0,8.0,68,0.00,,,0.01,,2013-10-08 15:53:00,
2013-10-08 12:03:00,87.0,75.0,29.91,WNW,296,1.0,8.0,68,0.00,,,0.01,,2013-10-08 16:03:00,
2013-10-08 12:23:00,88.0,76.0,29.91,West,277,1.0,4.0,67,0.00,,,0.01,,2013-10-08 16:23:00,
2013-10-08 12:33:00,88.0,76.0,29.91,West,277,1.0,4.0,67,0.00,,,0.01,,2013-10-08 16:33:00,
2013-10-08 12:42:00,88.0,76.0,29.91,West,277,1.0,4.0,67,0.00,,,0.01,,2013-10-08 16:42:00,
2013-10-08 12:53:00,87.0,74.0,29.90,West,273,4.0,4.0,66,0.00,,,0.01,,2013-10-08 16:53:00,
2013-10-08 13:23:00,88.0,74.0,29.89,West,267,3.0,7.0,63,0.00,,,0.01,,2013-10-08 17:23:00,
2013-10-08 13:52:00,88.0,75.0,29.89,SW,222,0.0,7.0,65,0.00,,,0.01,,2013-10-08 17:52:00,
2013-10-08 14:22:00,89.0,75.0,29.88,North,5,3.0,4.0,63,0.00,,,0.00,,2013-10-08 18:22:00,
2013-10-08 14:32:00,89.0,75.0,29.88,North,5,3.0,4.0,63,0.00,,,0.00,,2013-10-08 18:32:00,
2013-10-08 14:53:00,88.0,74.0,29.88,West,275,3.0,7.0,64,0.00,,,0.00,,2013-10-08 18:53:00,
2013-10-08 15:22:00,88.0,74.0,29.87,WSW,258,2.0,7.0,64,0.00,,,0.00,,2013-10-08 19:22:00,
2013-10-08 15:42:00,87.0,74.0,29.86,WSW,240,1.0,7.0,66,0.00,,,0.00,,2013-10-08 19:42:00,
2013-10-08 15:52:00,87.0,74.0,29.87,NW,314,3.0,6.0,66,0.00,,,0.00,,2013-10-08 19:52:00,
2013-10-08 16:22:00,88.0,76.0,29.87,WSW,250,0.0,4.0,67,0.00,,,0.00,,2013-10-08 20:22:00,
2013-10-08 16:42:00,88.0,75.0,29.87,WNW,300,3.0,9.0,65,0.00,,,0.00,,2013-10-08 20:42:00,
2013-10-08 16:52:00,87.0,75.0,29.87,WNW,294,0.0,5.0,68,0.00,,,0.00,,2013-10-08 20:52:00,
2013-10-08 17:02:00,87.0,75.0,29.87,WNW,294,0.0,5.0,68,0.00,,,0.00,,2013-10-08 21:02:00,
2013-10-08 17:22:00,87.0,75.0,29.87,WNW,289,1.0,6.0,67,0.00,,,0.00,,2013-10-08 21:22:00,
2013-10-08 17:44:00,86.0,74.0,29.87,NW,311,0.0,8.0,68,0.00,,,0.00,,2013-10-08 21:44:00,
2013-10-08 17:54:00,86.0,74.0,29.87,NW,311,0.0,8.0,68,0.00,,,0.00,,2013-10-08 21:54:00,
2013-10-08 18:03:00,86.0,74.0,29.87,NW,311,0.0,8.0,68,0.00,,,0.00,,2013-10-08 22:03:00,
2013-10-08 18:24:00,86.0,74.0,29.87,NW,311,0.0,0.0,68,0.00,,,0.00,,2013-10-08 22:24:00,
2013-10-08 18:49:00,86.0,74.0,29.88,NW,311,0.0,0.0,68,0.00,,,0.00,,2013-10-08 22:49:00,
2013-10-08 18:58:00,82.0,73.0,29.88,WSW,254,1.0,2.0,75,0.00,,,0.00,,2013-10-08 22:58:00,
2013-10-08 19:23:00,80.0,72.0,29.88,West,279,0.0,1.0,78,0.00,,,0.00,,2013-10-08 23:23:00,
2013-10-08 19:32:00,78.0,71.0,29.89,West,279,0.0,0.0,80,0.00,,,0.00,,2013-10-08 23:32:00,
2013-10-08 19:52:00,78.0,71.0,29.89,West,279,0.0,0.0,80,0.00,,,0.00,,2013-10-08 23:52:00,
2013-10-08 20:02:00,78.0,71.0,29.89,West,279,0.0,0.0,80,0.00,,,0.00,,2013-10-09 00:02:00,
2013-10-08 20:12:00,78.0,71.0,29.89,West,279,0.0,0.0,80,0.00,,,0.00,,2013-10-09 00:12:00,
2013-10-08 20:22:00,78.0,71.0,29.89,West,279,0.0,0.0,80,0.00,,,0.00,,2013-10-09 00:22:00,
2013-10-08 20:52:00,74.0,69.0,29.90,West,279,0.0,0.0,85,0.00,,,0.00,,2013-10-09 00:52:00,
2013-10-08 21:22:00,73.0,69.0,29.91,West,279,0.0,0.0,86,0.00,,,0.00,,2013-10-09 01:22:00,
2013-10-08 21:32:00,73.0,69.0,29.91,West,279,0.0,0.0,86,0.00,,,0.00,,2013-10-09 01:32:00,
2013-10-08 21:43:00,73.0,69.0,29.91,West,279,0.0,0.0,86,0.00,,,0.00,,2013-10-09 01:43:00,
2013-10-08 21:52:00,72.0,68.0,29.92,West,279,0.0,0.0,86,0.00,,,0.00,,2013-10-09 01:52:00,
2013-10-08 22:23:00,70.0,66.0,29.92,West,279,0.0,0.0,86,0.00,,,0.00,,2013-10-09 02:23:00,
2013-10-08 22:42:00,70.0,66.0,29.92,West,279,0.0,0.0,86,0.00,,,0.00,,2013-10-09 02:42:00,
2013-10-08 22:52:00,70.0,66.0,29.92,West,279,0.0,0.0,86,0.00,,,0.00,,2013-10-09 02:52:00,
2013-10-08 23:02:00,70.0,66.0,29.92,West,279,0.0,0.0,86,0.00,,,0.00,,2013-10-09 03:02:00,
2013-10-08 23:23:00,69.0,65.0,29.93,West,279,0.0,0.0,86,0.00,,,0.00,,2013-10-09 03:23:00,
2013-10-08 23:45:00,69.0,65.0,29.93,West,279,0.0,0.0,86,0.00,,,0.00,,2013-10-09 03:45:00,
2013-10-08 23:54:00,69.0,65.0,29.93,West,279,0.0,0.0,86,0.00,,,0.00,,2013-10-09 03:54:00,